Time;durP1;ratioP1;P1;durP2;ratioP2;P2;SDS_P1;SDS_P2;PMS_P1;PMS_P2;Temp;Humidity;BMP_temperature;BMP_pressure;BME280_temperature;BME280_humidity;BME280_pressure;Samples;Min_cycle;Max_cycle;Signal;HPM_P1;HPM_P2
2023/03/02 00:00:36;;;;;;;13.83;12.67;;;;;;;6.55;100.00;64501.72;5093139;28;20217;-65
2023/03/02 00:03:05;;;;;;;15.07;13.50;;;;;;;6.63;100.00;78131.75;5111031;28;20198;-65
2023/03/02 00:05:33;;;;;;;14.50;13.17;;;;;;;6.53;100.00;96036.06;5108444;28;20547;-65
2023/03/02 00:08:03;;;;;;;14.37;12.97;;;;;;;6.60;100.00;111761.13;5104341;28;20187;-65
2023/03/02 00:10:31;;;;;;;17.00;12.30;;;;;;;6.62;100.00;115705.72;5103973;28;20191;-65
2023/03/02 00:12:58;;;;;;;14.17;12.80;;;;;;;6.39;100.00;119931.75;5104562;28;20188;-66
2023/03/02 00:15:25;;;;;;;13.10;12.00;;;;;;;6.53;100.00;118644.28;5103109;28;20188;-65
2023/03/02 00:17:52;;;;;;;13.40;12.30;;;;;;;6.49;100.00;117978.81;5104206;28;20188;-66
2023/03/02 00:20:19;;;;;;;13.90;12.50;;;;;;;6.57;100.00;122270.47;5103077;28;20204;-65
2023/03/02 00:22:47;;;;;;;16.07;13.67;;;;;;;6.49;100.00;129290.06;5105660;28;20192;-66
2023/03/02 00:25:17;;;;;;;12.77;11.87;;;;;;;6.58;100.00;132767.69;5104172;28;20604;-66
2023/03/02 00:27:44;;;;;;;14.20;12.77;;;;;;;6.54;100.00;131553.22;5098504;28;20188;-64
2023/03/02 00:30:12;;;;;;;14.17;12.67;;;;;;;6.64;100.00;131920.03;5094472;28;20186;-66
2023/03/02 00:32:40;;;;;;;13.57;12.40;;;;;;;6.56;100.00;144322.44;5094504;28;20258;-65
2023/03/02 00:35:08;;;;;;;13.80;12.63;;;;;;;6.22;100.00;145957.19;5094598;28;20192;-65
2023/03/02 00:37:36;;;;;;;13.50;12.33;;;;;;;6.14;100.00;125142.69;5094193;28;20191;-65
2023/03/02 00:40:05;;;;;;;12.90;11.90;;;;;;;6.23;100.00;121214.00;5093962;28;20281;-64
2023/03/02 00:42:34;;;;;;;13.77;12.57;;;;;;;6.30;100.00;118928.31;5094320;28;20246;-66
2023/03/02 00:45:01;;;;;;;13.57;12.30;;;;;;;6.36;100.00;117297.56;5093919;28;20191;-65
2023/03/02 00:47:28;;;;;;;15.07;12.73;;;;;;;6.49;100.00;116007.50;5094094;28;20188;-65
2023/03/02 00:49:56;;;;;;;12.93;11.87;;;;;;;6.57;100.00;129918.31;5100869;28;20192;-65
2023/03/02 00:52:23;;;;;;;14.33;12.80;;;;;;;6.50;100.00;138419.88;5103115;28;20192;-65
2023/03/02 00:54:50;;;;;;;13.87;12.60;;;;;;;6.23;100.00;138134.16;5105995;28;20215;-67
2023/03/02 00:57:17;;;;;;;13.77;12.33;;;;;;;6.45;100.00;135882.41;5114421;28;20202;-66
2023/03/02 00:59:45;;;;;;;13.00;11.70;;;;;;;6.48;100.00;124556.78;5114394;28;20246;-65
2023/03/02 01:02:12;;;;;;;13.67;12.40;;;;;;;6.45;100.00;137294.16;5114368;28;20179;-65
2023/03/02 01:04:41;;;;;;;14.93;12.30;;;;;;;6.49;100.00;133893.44;5114735;28;20194;-65
2023/03/02 01:07:10;;;;;;;13.50;12.23;;;;;;;6.36;100.00;142296.59;5114285;28;20195;-65
2023/03/02 01:09:38;;;;;;;13.87;12.57;;;;;;;6.39;100.00;145868.91;5114409;28;20653;-65
2023/03/02 01:12:08;;;;;;;13.07;11.97;;;;;;;6.42;100.00;143720.22;5114487;28;20558;-66
2023/03/02 01:14:35;;;;;;;15.43;13.03;;;;;;;6.29;100.00;147256.78;5114250;28;20187;-66
2023/03/02 01:17:04;;;;;;;13.17;11.97;;;;;;;6.53;100.00;145064.09;5112963;28;20184;-65
2023/03/02 01:19:31;;;;;;;14.73;12.53;;;;;;;6.59;100.00;144937.84;5113933;28;20183;-65
2023/03/02 01:21:58;;;;;;;13.20;12.10;;;;;;;6.43;100.00;146109.16;5114049;28;20194;-66
2023/03/02 01:24:25;;;;;;;15.83;12.20;;;;;;;5.98;100.00;146061.53;5114328;28;20191;-65
2023/03/02 01:26:51;;;;;;;14.07;12.83;;;;;;;6.20;100.00;135995.78;5113914;28;20187;-65
2023/03/02 01:29:18;;;;;;;13.93;12.63;;;;;;;6.36;100.00;133942.22;5114190;28;20626;-65
2023/03/02 01:31:46;;;;;;;13.60;12.20;;;;;;;6.41;100.00;140415.81;5113915;28;20179;-65
2023/03/02 01:34:14;;;;;;;20.93;13.57;;;;;;;6.52;100.00;145168.94;5113812;28;20187;-65
2023/03/02 01:36:44;;;;;;;13.77;12.43;;;;;;;6.51;100.00;147683.63;5113746;28;20188;-66
2023/03/02 01:39:14;;;;;;;14.30;12.97;;;;;;;6.41;100.00;147659.69;5113999;28;20210;-65
2023/03/02 01:41:41;;;;;;;13.60;12.37;;;;;;;6.44;100.00;147667.28;5113878;28;20697;-65
2023/03/02 01:44:42;;;;;;;13.80;12.37;;;;;;;6.48;100.00;147677.34;5113539;28;20183;-65
2023/03/02 01:47:19;;;;;;;12.87;11.63;;;;;;;6.61;100.00;147710.13;5113550;28;20187;-66
2023/03/02 01:49:51;;;;;;;12.50;11.40;;;;;;;6.61;100.00;147708.84;5113877;28;20214;-65
2023/03/02 01:52:19;;;;;;;13.50;12.40;;;;;;;6.64;100.00;147717.66;5113764;28;20187;-66
2023/03/02 01:54:51;;;;;;;14.13;12.77;;;;;;;6.68;100.00;147726.47;5113203;28;20234;-65
2023/03/02 01:57:22;;;;;;;12.53;11.47;;;;;;;6.77;100.00;147750.44;5113578;28;20191;-66
2023/03/02 01:59:56;;;;;;;12.23;11.33;;;;;;;6.72;100.00;147737.81;5113258;28;20188;-65
2023/03/02 02:02:23;;;;;;;12.93;11.80;;;;;;;6.82;100.00;147761.78;5113477;28;20669;-66
2023/03/02 02:04:54;;;;;;;12.30;11.30;;;;;;;6.86;100.00;147773.13;5113207;28;20195;-66
2023/03/02 02:07:21;;;;;;;13.17;11.87;;;;;;;6.77;100.00;147749.16;5113127;28;20187;-65
2023/03/02 02:09:51;;;;;;;12.00;11.10;;;;;;;6.73;100.00;147740.34;5113289;28;20570;-65
2023/03/02 02:12:20;;;;;;;12.90;11.93;;;;;;;6.67;100.00;147723.94;5095612;28;20187;-64
2023/03/02 02:14:50;;;;;;;11.90;11.17;;;;;;;6.80;100.00;147756.72;5095342;28;20266;-66
2023/03/02 02:17:19;;;;;;;17.03;11.43;;;;;;;6.72;100.00;147736.56;5113291;28;20621;-65
2023/03/02 02:20:05;;;;;;;11.97;11.07;;;;;;;6.77;100.00;147750.44;5113127;28;20550;-65
2023/03/02 02:22:43;;;;;;;12.17;11.17;;;;;;;6.69;100.00;147729.00;5113113;28;20274;-65
2023/03/02 02:25:21;;;;;;;12.50;11.37;;;;;;;6.83;100.00;147765.50;5112764;28;20279;-65
2023/03/02 02:27:49;;;;;;;12.77;11.70;;;;;;;6.82;100.00;147763.03;5112527;28;20222;-65
2023/03/02 02:30:18;;;;;;;12.10;11.27;;;;;;;6.85;100.00;147770.59;5112685;28;20179;-65
2023/03/02 02:32:48;;;;;;;12.67;11.67;;;;;;;6.58;100.00;147702.53;5112714;28;20191;-65
2023/03/02 02:35:20;;;;;;;12.17;11.20;;;;;;;6.78;100.00;147751.69;5112920;28;20554;-65
2023/03/02 02:37:50;;;;;;;13.70;11.73;;;;;;;6.55;100.00;147693.72;5112925;28;20214;-65
2023/03/02 02:40:22;;;;;;;13.87;12.57;;;;;;;6.63;100.00;147713.88;5112356;28;20211;-65
2023/03/02 02:42:53;;;;;;;13.10;12.00;;;;;;;6.61;100.00;147710.13;5112678;28;20188;-65
2023/03/02 02:45:23;;;;;;;13.13;12.13;;;;;;;6.50;100.00;147682.38;5112271;28;20222;-65
2023/03/02 02:47:51;;;;;;;13.03;11.93;;;;;;;6.31;100.00;147634.53;5112458;28;20190;-65
2023/03/02 02:50:20;;;;;;;12.27;11.30;;;;;;;6.17;100.00;147600.50;5112614;28;20198;-65
2023/03/02 02:52:53;;;;;;;12.60;11.53;;;;;;;6.15;100.00;147594.22;5112332;28;20190;-65
2023/03/02 02:55:23;;;;;;;12.97;11.70;;;;;;;6.21;100.00;147610.56;5112060;28;20242;-65
2023/03/02 02:57:56;;;;;;;12.60;11.53;;;;;;;6.04;100.00;147566.50;5112335;28;20195;-66
2023/03/02 03:00:23;;;;;;;13.37;12.27;;;;;;;6.08;100.00;147576.56;5112071;28;20213;-65
2023/03/02 03:02:55;;;;;;;12.20;11.20;;;;;;;5.80;100.00;145358.84;5112591;28;20551;-66
2023/03/02 03:05:22;;;;;;;13.30;12.20;;;;;;;6.06;100.00;142814.16;5112147;28;20634;-65
2023/03/02 03:07:49;;;;;;;13.00;11.80;;;;;;;5.87;100.00;136530.03;5112451;28;20187;-66
2023/03/02 03:10:21;;;;;;;13.90;12.50;;;;;;;5.89;100.00;129040.44;5112198;28;20638;-66
2023/03/02 03:12:48;;;;;;;13.87;12.43;;;;;;;5.88;100.00;129367.59;5112279;28;20260;-66
2023/03/02 03:15:16;;;;;;;14.17;12.77;;;;;;;5.88;100.00;123443.66;5112372;28;20187;-68
2023/03/02 03:17:48;;;;;;;13.20;12.10;;;;;;;6.01;100.00;125773.06;5111982;28;20592;-65
2023/03/02 03:20:17;;;;;;;13.83;12.43;;;;;;;5.93;100.00;132680.56;5112070;28;20183;-65
2023/03/02 03:22:44;;;;;;;13.90;12.60;;;;;;;6.04;100.00;139333.28;5111886;28;20194;-64
2023/03/02 03:25:14;;;;;;;13.53;12.17;;;;;;;5.76;100.00;143479.53;5112106;28;20262;-66
2023/03/02 03:27:42;;;;;;;14.17;12.73;;;;;;;5.90;100.00;141816.78;5111837;28;20223;-65
2023/03/02 03:30:11;;;;;;;14.43;13.03;;;;;;;6.03;100.00;144582.25;5111731;28;20195;-65
2023/03/02 03:32:40;;;;;;;14.30;12.90;;;;;;;5.57;100.00;145799.09;5112074;28;20187;-65
2023/03/02 03:35:10;;;;;;;14.47;13.03;;;;;;;6.05;100.00;147570.28;5111798;28;20194;-65
2023/03/02 03:37:38;;;;;;;15.53;13.97;;;;;;;5.95;100.00;147545.09;5111744;28;20498;-65
2023/03/02 03:40:08;;;;;;;14.43;13.03;;;;;;;5.97;100.00;147551.41;5114824;28;20657;-65
2023/03/02 03:42:36;;;;;;;13.50;12.40;;;;;;;6.06;100.00;147572.81;5115920;28;20183;-65
2023/03/02 03:45:03;;;;;;;14.97;13.30;;;;;;;6.08;100.00;147576.56;5116188;28;20245;-65
2023/03/02 03:47:30;;;;;;;15.87;13.17;;;;;;;6.02;100.00;147561.47;5115806;28;20187;-64
2023/03/02 03:49:58;;;;;;;14.97;13.37;;;;;;;6.05;100.00;147569.03;5115776;28;20191;-65
2023/03/02 03:52:30;;;;;;;15.00;13.33;;;;;;;6.16;100.00;147596.72;5115365;28;20203;-65
2023/03/02 03:54:57;;;;;;;15.03;13.20;;;;;;;6.20;100.00;147606.78;5115487;28;20763;-65
2023/03/02 03:57:24;;;;;;;15.37;13.33;;;;;;;6.24;100.00;147616.84;5097174;28;20227;-65
2023/03/02 03:59:51;;;;;;;17.17;13.87;;;;;;;6.23;100.00;147614.38;5115523;28;20195;-65
2023/03/02 04:02:18;;;;;;;15.40;13.87;;;;;;;6.24;100.00;147618.13;5115217;28;20208;-64
2023/03/02 04:04:45;;;;;;;13.83;12.53;;;;;;;6.12;100.00;147587.91;5115522;28;20180;-65
2023/03/02 04:07:14;;;;;;;22.47;13.77;;;;;;;6.33;100.00;147639.53;5115395;28;20195;-65
2023/03/02 04:09:41;;;;;;;15.60;13.63;;;;;;;6.33;100.00;147640.81;5115719;28;20610;-65
2023/03/02 04:12:09;;;;;;;15.27;13.67;;;;;;;6.32;100.00;147637.06;5115623;28;20183;-65
2023/03/02 04:14:36;;;;;;;14.83;13.53;;;;;;;6.50;100.00;147682.38;5115459;28;20190;-65
2023/03/02 04:17:04;;;;;;;15.63;13.53;;;;;;;6.47;100.00;147673.56;5115333;28;20190;-64
2023/03/02 04:19:31;;;;;;;15.67;13.17;;;;;;;6.54;100.00;147692.44;5115579;28;20607;-66
2023/03/02 04:22:00;;;;;;;15.33;13.77;;;;;;;6.50;100.00;147682.38;5115156;28;20213;-66
2023/03/02 04:24:28;;;;;;;20.70;13.83;;;;;;;6.56;100.00;147697.50;5115515;28;20222;-66
2023/03/02 04:26:56;;;;;;;17.87;13.60;;;;;;;6.59;100.00;147705.06;5114808;28;20183;-66
2023/03/02 04:29:23;;;;;;;17.93;14.37;;;;;;;6.56;100.00;147696.25;5114977;28;20193;-64
2023/03/02 04:31:50;;;;;;;19.53;13.83;;;;;;;6.68;100.00;147726.47;5115327;28;20634;-67
2023/03/02 04:34:17;;;;;;;18.73;14.77;;;;;;;6.74;100.00;147742.88;5114953;28;20183;-64
2023/03/02 04:36:44;;;;;;;20.40;14.47;;;;;;;6.47;100.00;147674.81;5114863;28;20183;-66
2023/03/02 04:39:13;;;;;;;22.00;14.93;;;;;;;6.57;100.00;147700.03;5115105;28;20218;-65
2023/03/02 04:41:42;;;;;;;20.13;14.27;;;;;;;6.29;100.00;147630.72;5114919;28;20582;-65
2023/03/02 04:44:09;;;;;;;19.67;14.23;;;;;;;6.30;100.00;147633.25;5115020;28;20634;-65
2023/03/02 04:46:35;;;;;;;18.93;14.77;;;;;;;6.47;100.00;147674.81;5114619;28;20220;-65
2023/03/02 04:49:03;;;;;;;38.13;15.60;;;;;;;6.59;100.00;147703.78;5114517;28;20192;-65
2023/03/02 04:51:32;;;;;;;22.23;15.43;;;;;;;6.53;100.00;147689.97;5114582;28;20187;-65
2023/03/02 04:54:01;;;;;;;59.17;18.53;;;;;;;6.71;100.00;147734.00;5114285;28;20186;-65
2023/03/02 04:56:28;;;;;;;24.20;14.23;;;;;;;6.81;100.00;147760.50;5114282;28;20727;-65
2023/03/02 04:58:58;;;;;;;59.87;17.33;;;;;;;6.63;100.00;147713.88;5114405;28;20210;-66
2023/03/02 05:01:26;;;;;;;24.67;15.07;;;;;;;6.69;100.00;147729.00;5114414;28;20684;-65
2023/03/02 05:03:55;;;;;;;32.87;16.60;;;;;;;6.68;100.00;147727.75;5114406;28;20179;-65
2023/03/02 05:06:23;;;;;;;16.47;14.50;;;;;;;6.43;100.00;147664.75;5114594;28;20263;-65
2023/03/02 05:08:51;;;;;;;20.70;13.93;;;;;;;6.31;100.00;147635.78;5114307;28;20191;-65
2023/03/02 05:11:21;;;;;;;19.73;13.77;;;;;;;6.42;100.00;147663.47;5114666;28;20240;-64
2023/03/02 05:13:49;;;;;;;19.83;14.40;;;;;;;6.47;100.00;147673.56;5114369;28;20567;-65
2023/03/02 05:16:17;;;;;;;20.33;14.63;;;;;;;6.26;100.00;147623.19;5114316;28;20626;-65
2023/03/02 05:18:44;;;;;;;18.00;14.33;;;;;;;6.26;100.00;147621.91;5113788;28;20188;-65
2023/03/02 05:21:11;;;;;;;16.27;14.50;;;;;;;6.48;100.00;147676.09;5114102;28;20576;-65
2023/03/02 05:23:38;;;;;;;15.17;13.70;;;;;;;6.43;100.00;147664.75;5114173;28;20650;-65
2023/03/02 05:26:05;;;;;;;16.80;13.77;;;;;;;6.18;100.00;147601.78;5114139;28;20584;-65
2023/03/02 05:28:32;;;;;;;16.03;14.33;;;;;;;6.19;100.00;147604.31;5114214;28;20533;-65
2023/03/02 05:30:59;;;;;;;16.30;14.70;;;;;;;6.20;100.00;147608.03;5113698;28;20184;-65
2023/03/02 05:33:28;;;;;;;17.63;15.73;;;;;;;6.34;100.00;147642.06;5113773;28;20198;-65
2023/03/02 05:35:55;;;;;;;17.97;14.37;;;;;;;6.38;100.00;147652.13;5113683;28;20180;-65
2023/03/02 05:38:22;;;;;;;20.10;15.60;;;;;;;6.41;100.00;147659.69;5113630;28;20183;-65
2023/03/02 05:40:49;;;;;;;22.80;16.43;;;;;;;6.55;100.00;147694.97;5113605;28;20187;-65
2023/03/02 05:43:18;;;;;;;30.33;16.60;;;;;;;6.50;100.00;147682.38;5113804;28;20562;-64
2023/03/02 05:45:46;;;;;;;22.73;15.30;;;;;;;6.42;100.00;147662.22;5113839;28;20484;-64
2023/03/02 05:48:13;;;;;;;31.17;15.80;;;;;;;6.70;100.00;147732.81;5113377;28;20179;-65
2023/03/02 05:50:42;;;;;;;23.00;16.50;;;;;;;6.63;100.00;147715.13;5113980;28;20195;-65
2023/03/02 05:53:09;;;;;;;17.73;15.13;;;;;;;6.46;100.00;147671.03;5113600;28;20179;-65
2023/03/02 05:55:36;;;;;;;16.40;13.73;;;;;;;6.47;100.00;147674.81;5113191;28;20310;-65
2023/03/02 05:58:03;;;;;;;24.33;16.27;;;;;;;6.77;100.00;147749.16;5113216;28;20191;-66
2023/03/02 06:00:30;;;;;;;30.20;16.47;;;;;;;6.83;100.00;147765.50;5113495;28;20237;-66
2023/03/02 06:02:57;;;;;;;30.10;15.67;;;;;;;6.79;100.00;147755.44;5112665;28;20207;-65
2023/03/02 06:05:24;;;;;;;28.77;17.20;;;;;;;6.85;100.00;147769.31;5113479;28;20626;-66
2023/03/02 06:07:52;;;;;;;32.83;17.50;;;;;;;6.92;100.00;147786.94;5113487;28;20626;-66
2023/03/02 06:10:19;;;;;;;44.70;18.77;;;;;;;6.85;100.00;147770.59;5113445;28;20619;-65
2023/03/02 06:12:46;;;;;;;29.67;16.57;;;;;;;6.96;100.00;147795.81;5112935;28;20191;-67
2023/03/02 06:15:13;;;;;;;28.63;16.30;;;;;;;7.01;100.00;147808.38;5112968;28;20568;-65
2023/03/02 06:17:40;;;;;;;24.83;15.90;;;;;;;7.00;100.00;147805.88;5112900;28;20183;-64
2023/03/02 06:20:09;;;;;;;21.17;16.10;;;;;;;6.87;100.00;147775.59;5112746;28;20209;-64
2023/03/02 06:22:39;;;;;;;43.40;18.47;;;;;;;7.05;100.00;147818.44;5112419;28;20323;-65
2023/03/02 06:25:09;;;;;;;21.07;14.63;;;;;;;6.78;100.00;147752.97;5112831;28;20187;-65
2023/03/02 06:27:37;;;;;;;21.50;15.87;;;;;;;6.88;100.00;147778.13;5112850;28;20574;-64
2023/03/02 06:30:05;;;;;;;20.33;16.47;;;;;;;6.81;100.00;147759.25;5112472;28;20183;-64
2023/03/02 06:32:33;;;;;;;21.13;15.10;;;;;;;6.57;100.00;147700.03;5112390;28;20634;-65
2023/03/02 06:35:00;;;;;;;21.80;16.30;;;;;;;6.55;100.00;147694.97;5094171;28;20587;-63
2023/03/02 06:37:28;;;;;;;21.13;15.93;;;;;;;6.33;100.00;147639.53;5112753;28;20244;-63
2023/03/02 06:40:12;;;;;;;19.43;16.70;;;;;;;6.15;100.00;147595.50;5108260;28;20203;-63
2023/03/02 06:42:42;;;;;;;20.00;16.63;;;;;;;6.22;100.00;147611.84;5103109;28;20215;-64
2023/03/02 06:45:10;;;;;;;23.30;16.17;;;;;;;6.20;100.00;147606.78;5105113;28;20697;-64
2023/03/02 06:47:37;;;;;;;24.47;16.77;;;;;;;6.11;100.00;147585.38;5104530;28;20200;-65
2023/03/02 06:50:06;;;;;;;21.60;17.37;;;;;;;6.40;100.00;147657.19;5111713;28;20574;-65
2023/03/02 06:52:33;;;;;;;31.00;17.73;;;;;;;6.71;100.00;147734.00;5112861;28;20289;-64
2023/03/02 06:55:00;;;;;;;25.53;18.17;;;;;;;6.99;100.00;147803.34;5112513;28;20634;-64
2023/03/02 06:57:32;;;;;;;22.10;17.80;;;;;;;6.81;100.00;147760.50;5112428;28;20206;-64
2023/03/02 07:00:01;;;;;;;18.73;16.83;;;;;;;6.54;100.00;147691.19;5112039;28;20194;-66
2023/03/02 07:02:28;;;;;;;21.83;17.10;;;;;;;6.15;100.00;147594.22;5111881;28;20199;-64
2023/03/02 07:04:55;;;;;;;20.80;17.37;;;;;;;6.49;100.00;147679.88;5112334;28;20190;-64
2023/03/02 07:07:21;;;;;;;25.53;17.50;;;;;;;6.40;100.00;147658.47;5091170;28;20207;-64
2023/03/02 07:09:48;;;;;;;24.50;18.13;;;;;;;6.61;100.00;147708.84;5107022;28;20203;-61
2023/03/02 07:12:15;;;;;;;32.17;18.63;;;;;;;6.70;100.00;147731.53;5111858;28;20186;-59
2023/03/02 07:14:42;;;;;;;27.80;18.43;;;;;;;6.97;100.00;147798.28;5106040;28;20701;-64
2023/03/02 07:17:10;;;;;;;32.77;19.70;;;;;;;7.24;100.00;147866.38;5080965;28;20206;-64
2023/03/02 07:19:38;;;;;;;27.97;19.17;;;;;;;7.13;100.00;147838.66;5092667;28;20200;-63
2023/03/02 07:22:05;;;;;;;27.37;20.13;;;;;;;7.01;100.00;147808.38;5091781;28;20261;-64
2023/03/02 07:24:32;;;;;;;27.90;19.60;;;;;;;6.80;100.00;147757.97;5111479;28;20198;-64
2023/03/02 07:26:59;;;;;;;31.97;20.00;;;;;;;6.82;100.00;147761.78;5112086;28;20188;-64
2023/03/02 07:29:26;;;;;;;28.27;20.07;;;;;;;6.65;100.00;147720.19;5112376;28;20534;-64
2023/03/02 07:31:55;;;;;;;27.17;19.30;;;;;;;7.22;100.00;147862.56;5112250;28;20190;-64
2023/03/02 07:34:24;;;;;;;28.53;19.20;;;;;;;7.27;100.00;147875.19;5111799;28;20191;-64
2023/03/02 07:36:52;;;;;;;31.07;20.83;;;;;;;7.40;100.00;147906.72;5111226;28;20195;-64
2023/03/02 07:39:20;;;;;;;31.33;18.83;;;;;;;7.71;100.00;147983.63;5101291;28;20184;-63
2023/03/02 07:41:47;;;;;;;31.00;19.10;;;;;;;7.93;100.00;148037.88;5091691;28;20204;-65
2023/03/02 07:44:14;;;;;;;35.90;20.70;;;;;;;7.73;100.00;147989.91;5091329;28;20188;-64
2023/03/02 07:46:40;;;;;;;27.83;18.87;;;;;;;7.68;100.00;147977.31;5091239;28;20190;-65
2023/03/02 07:49:07;;;;;;;26.70;19.90;;;;;;;7.76;100.00;147996.25;5091062;28;20252;-65
2023/03/02 07:51:36;;;;;;;32.13;19.50;;;;;;;7.84;100.00;148016.44;5091162;28;20195;-64
2023/03/02 07:54:03;;;;;;;22.13;18.07;;;;;;;7.31;100.00;147884.00;5091502;28;20188;-64
2023/03/02 07:56:30;;;;;;;32.30;19.67;;;;;;;7.26;100.00;147871.41;5091134;28;20235;-64
2023/03/02 07:58:59;;;;;;;36.53;20.53;;;;;;;7.25;100.00;147868.91;5091625;28;20206;-65
2023/03/02 08:01:26;;;;;;;23.37;19.07;;;;;;;7.28;100.00;147876.44;5091823;28;20184;-66
2023/03/02 08:03:52;;;;;;;23.60;19.17;;;;;;;7.35;100.00;147894.09;5091168;28;20188;-65
2023/03/02 08:06:19;;;;;;;27.33;19.40;;;;;;;7.47;100.00;147924.34;5091202;28;20188;-64
2023/03/02 08:08:48;;;;;;;26.50;19.73;;;;;;;7.37;100.00;147899.16;5090942;28;20250;-64
2023/03/02 08:11:17;;;;;;;26.80;20.40;;;;;;;7.26;100.00;147871.41;5091052;28;20184;-64
2023/03/02 08:13:45;;;;;;;25.57;19.50;;;;;;;7.26;100.00;147871.41;5091315;28;20199;-64
2023/03/02 08:16:14;;;;;;;25.67;19.53;;;;;;;7.57;100.00;147948.31;5091633;28;20191;-65
2023/03/02 08:18:43;;;;;;;31.80;20.83;;;;;;;7.47;100.00;147924.34;5090988;28;20195;-65
2023/03/02 08:21:15;;;;;;;24.43;19.87;;;;;;;7.55;100.00;147943.28;5091275;28;20631;-64
2023/03/02 08:23:42;;;;;;;25.07;19.57;;;;;;;7.78;100.00;148001.28;5090637;28;20303;-65
2023/03/02 08:26:11;;;;;;;23.87;19.27;;;;;;;7.91;100.00;148032.81;5093469;28;20241;-65
2023/03/02 08:28:38;;;;;;;26.60;19.47;;;;;;;8.12;100.00;148085.78;5095004;28;20188;-65
2023/03/02 08:31:07;;;;;;;31.60;20.37;;;;;;;8.13;100.00;148088.31;5094363;28;20639;-65
2023/03/02 08:33:34;;;;;;;29.87;19.33;;;;;;;8.13;100.00;148088.31;5094677;28;20190;-65
2023/03/02 08:36:04;;;;;;;29.63;20.03;;;;;;;8.08;100.00;148075.69;5096174;28;20202;-64
2023/03/02 08:38:32;;;;;;;29.93;19.53;;;;;;;7.87;100.00;148022.72;5105464;28;20708;-64
2023/03/02 08:41:02;;;;;;;30.70;19.03;;;;;;;7.91;100.00;148032.81;5106987;28;20195;-64
2023/03/02 08:43:42;;;;;;;23.27;18.17;;;;;;;7.26;100.00;147871.41;5105148;28;20685;-64
2023/03/02 08:46:11;;;;;;;32.47;19.87;;;;;;;7.42;100.00;147911.78;5108640;28;20202;-65
2023/03/02 08:48:38;;;;;;;24.57;18.53;;;;;;;7.60;100.00;147955.88;5112432;28;20203;-64
2023/03/02 08:51:08;;;;;;;24.30;18.17;;;;;;;7.46;100.00;147920.59;5113309;28;20600;-64
2023/03/02 08:53:37;;;;;;;26.47;19.80;;;;;;;7.29;100.00;147880.25;5104294;28;20203;-64
2023/03/02 08:56:06;;;;;;;41.40;20.03;;;;;;;7.55;100.00;147944.56;5114359;28;20235;-64
2023/03/02 08:58:34;;;;;;;29.80;21.07;;;;;;;7.40;100.00;147906.72;5114675;28;20278;-66
2023/03/02 09:01:01;;;;;;;28.97;19.57;;;;;;;7.52;100.00;147935.69;5114762;28;20282;-65
2023/03/02 09:03:28;;;;;;;34.33;20.07;;;;;;;7.26;100.00;147871.41;5114553;28;20502;-64
2023/03/02 09:05:54;;;;;;;34.40;20.50;;;;;;;7.11;100.00;147834.88;5114123;28;20184;-65
2023/03/02 09:08:21;;;;;;;32.70;21.17;;;;;;;7.13;100.00;147838.66;5114125;28;20184;-62
2023/03/02 09:10:49;;;;;;;28.57;21.20;;;;;;;7.14;100.00;147841.16;5114050;28;20194;-65
2023/03/02 09:13:16;;;;;;;30.20;22.33;;;;;;;7.00;100.00;147805.88;5114192;28;20187;-65
2023/03/02 09:15:45;;;;;;;34.40;22.00;;;;;;;7.33;100.00;147889.06;5114513;28;20566;-64
2023/03/02 09:18:12;;;;;;;25.60;20.13;;;;;;;7.25;100.00;147870.16;5114483;28;20266;-64
2023/03/02 09:20:38;;;;;;;33.77;19.87;;;;;;;7.37;100.00;147899.16;5113817;28;20184;-64
2023/03/02 09:23:06;;;;;;;28.37;20.17;;;;;;;7.10;100.00;147831.06;5114004;28;20661;-64
2023/03/02 09:25:32;;;;;;;29.63;19.90;;;;;;;7.38;100.00;147901.69;5113669;28;20180;-63
2023/03/02 09:28:01;;;;;;;37.67;22.07;;;;;;;7.27;100.00;147873.91;5113891;28;20271;-62
2023/03/02 09:30:28;;;;;;;29.23;19.70;;;;;;;7.27;100.00;147873.91;5113944;28;20597;-63
2023/03/02 09:32:56;;;;;;;30.77;20.27;;;;;;;7.32;100.00;147887.81;5113977;28;20180;-64
2023/03/02 09:35:23;;;;;;;26.90;18.57;;;;;;;7.30;100.00;147882.75;5113348;28;20214;-64
2023/03/02 09:37:50;;;;;;;26.27;18.83;;;;;;;7.47;100.00;147924.34;5112736;28;20194;-64
2023/03/02 09:40:22;;;;;;;26.80;18.43;;;;;;;7.44;100.00;147915.53;5095340;28;20218;-64
2023/03/02 09:43:06;;;;;;;25.40;19.07;;;;;;;7.56;100.00;147947.03;5113799;28;20208;-64
2023/03/02 09:45:51;;;;;;;22.73;16.10;;;;;;;7.90;100.00;148030.28;5113708;28;20604;-64
2023/03/02 09:48:31;;;;;;;22.93;17.20;;;;;;;7.96;100.00;148046.69;5113475;28;20221;-63
2023/03/02 09:51:19;;;;;;;19.77;15.97;;;;;;;8.07;100.00;148073.16;5113216;28;20274;-62
2023/03/02 09:53:56;;;;;;;20.87;15.60;;;;;;;8.53;100.00;148189.28;5113192;28;20183;-66
2023/03/02 09:56:24;;;;;;;22.90;16.03;;;;;;;8.85;100.00;148267.56;5113053;28;20237;-64
2023/03/02 09:58:59;;;;;;;18.97;15.10;;;;;;;9.34;100.00;148391.25;5113531;28;20193;-63
2023/03/02 10:01:36;;;;;;;14.63;12.53;;;;;;;9.10;100.00;148331.94;5116626;28;20182;-63
2023/03/02 10:04:17;;;;;;;13.87;12.40;;;;;;;9.09;100.00;148328.13;5113872;28;20242;-63
2023/03/02 10:06:45;;;;;;;14.43;12.33;;;;;;;8.90;100.00;148280.19;5113650;28;20268;-61
2023/03/02 10:09:12;;;;;;;16.57;12.90;;;;;;;9.23;100.00;148362.22;5112960;28;20311;-64
2023/03/02 10:11:53;;;;;;;25.63;16.57;;;;;;;9.00;100.00;148305.41;5113597;28;20538;-64
2023/03/02 10:14:26;;;;;;;24.00;16.53;;;;;;;8.98;100.00;148300.38;5113477;28;20179;-63
2023/03/02 10:17:02;;;;;;;23.83;15.53;;;;;;;9.02;100.00;148310.47;5113149;28;20190;-64
2023/03/02 10:19:40;;;;;;;15.60;13.93;;;;;;;9.28;100.00;148374.88;5112848;28;20179;-64
2023/03/02 10:22:16;;;;;;;15.90;14.20;;;;;;;9.50;100.00;148431.72;5113367;28;20202;-66
2023/03/02 10:24:51;;;;;;;16.30;14.33;;;;;;;9.52;100.00;148435.47;5112511;28;20560;-63
2023/03/02 10:27:24;;;;;;;19.57;14.63;;;;;;;9.53;100.00;148439.28;5112589;28;20538;-64
2023/03/02 10:29:58;;;;;;;27.00;15.10;;;;;;;9.35;100.00;148393.81;5112879;28;20539;-63
2023/03/02 10:32:31;;;;;;;15.53;13.90;;;;;;;9.25;100.00;148368.53;5094342;28;20198;-64
2023/03/02 10:35:02;;;;;;;14.97;13.40;;;;;;;9.51;100.00;148432.94;5112577;28;20221;-64
2023/03/02 10:37:30;;;;;;;16.43;13.67;;;;;;;9.84;100.00;148515.06;5112465;28;20184;-63
2023/03/02 10:39:57;;;;;;;15.63;14.13;;;;;;;9.98;100.00;148550.41;5112310;28;20183;-63
2023/03/02 10:42:30;;;;;;;16.23;14.70;;;;;;;9.91;100.00;148534.00;5112063;28;20188;-63
2023/03/02 10:45:06;;;;;;;19.70;13.77;;;;;;;9.58;100.00;148451.91;5112462;28;20271;-63
2023/03/02 10:47:33;;;;;;;18.23;16.40;;;;;;;9.89;100.00;148528.94;5112391;28;20629;-64
2023/03/02 10:50:01;;;;;;;22.03;16.27;;;;;;;10.05;100.00;148568.13;5094159;28;20569;-64
2023/03/02 10:52:29;;;;;;;17.63;15.83;;;;;;;10.16;100.00;148594.69;5112277;28;20630;-64
2023/03/02 10:55:03;;;;;;;17.73;16.13;;;;;;;10.40;100.00;148655.34;5111904;28;20231;-64
2023/03/02 10:57:37;;;;;;;18.87;16.80;;;;;;;11.03;100.00;148812.13;5111841;28;20205;-63
2023/03/02 11:00:15;;;;;;;18.03;15.57;;;;;;;11.04;100.00;148814.63;5111885;28;20184;-65
2023/03/02 11:02:52;;;;;;;17.93;16.20;;;;;;;11.48;100.00;148924.69;5112122;28;20620;-64
2023/03/02 11:05:26;;;;;;;21.23;16.80;;;;;;;11.08;100.00;148826.00;5111768;28;20187;-63
2023/03/02 11:07:55;;;;;;;15.33;13.90;;;;;;;10.82;100.00;148760.31;5093517;28;20212;-64
2023/03/02 11:10:23;;;;;;;15.37;13.97;;;;;;;10.79;100.00;148752.69;5112056;28;20283;-64
2023/03/02 11:12:52;;;;;;;18.23;14.97;;;;;;;10.24;100.00;148616.19;5111655;28;20293;-63
2023/03/02 11:15:26;;;;;;;18.03;14.27;;;;;;;10.11;100.00;148583.25;5111775;28;20203;-63
2023/03/02 11:18:01;;;;;;;18.73;13.73;;;;;;;9.86;100.00;148520.09;5111681;28;20187;-63